Time;durP1;ratioP1;P1;durP2;ratioP2;P2;SDS_P1;SDS_P2;PMS_P1;PMS_P2;Temp;Humidity;BMP_temperature;BMP_pressure;BME280_temperature;BME280_humidity;BME280_pressure;Samples;Min_cycle;Max_cycle;Signal;HPM_P1;HPM_P2
2022/03/18 00:00:44;;;;;;;5.75;4.40;;;22.50;42.10;;;;;;4999569;28;20049;-65
2022/03/18 00:03:09;;;;;;;5.10;4.10;;;22.50;42.10;;;;;;5003010;28;20386;-67
2022/03/18 00:05:36;;;;;;;6.45;4.20;;;22.50;42.10;;;;;;5002442;28;20085;-69
2022/03/18 00:08:02;;;;;;;5.72;4.43;;;22.50;42.10;;;;;;5000369;28;20370;-67
2022/03/18 00:10:29;;;;;;;6.25;4.30;;;22.50;42.10;;;;;;5003003;28;20068;-65
2022/03/18 00:12:54;;;;;;;6.20;4.18;;;22.50;42.10;;;;;;5002527;28;20064;-65
2022/03/18 00:15:23;;;;;;;6.18;4.07;;;22.40;42.20;;;;;;5001960;28;20048;-67
2022/03/18 00:17:49;;;;;;;6.22;4.68;;;22.40;42.10;;;;;;5001686;28;20026;-65
2022/03/18 00:20:15;;;;;;;6.32;4.47;;;22.40;42.10;;;;;;5001206;28;20034;-65
2022/03/18 00:22:42;;;;;;;6.43;4.60;;;22.40;42.20;;;;;;5004442;28;20032;-67
2022/03/18 00:25:09;;;;;;;5.57;4.28;;;22.40;42.20;;;;;;5013868;28;20355;-67
2022/03/18 00:27:35;;;;;;;6.20;4.60;;;22.40;42.20;;;;;;5002589;28;20462;-67
2022/03/18 00:30:02;;;;;;;5.90;4.30;;;22.40;42.20;;;;;;5000400;28;20033;-67
2022/03/18 00:32:28;;;;;;;6.07;4.30;;;22.40;42.70;;;;;;5003041;28;20144;-69
2022/03/18 00:34:53;;;;;;;5.25;4.03;;;22.40;42.20;;;;;;4999060;28;20445;-69
2022/03/18 00:37:19;;;;;;;6.63;4.45;;;22.40;42.20;;;;;;5003108;28;20084;-69
2022/03/18 00:39:45;;;;;;;6.57;4.43;;;22.40;42.20;;;;;;4999802;28;20025;-69
2022/03/18 00:42:12;;;;;;;5.50;4.22;;;22.30;42.10;;;;;;5000323;28;20038;-65
2022/03/18 00:44:39;;;;;;;6.25;4.30;;;22.30;42.10;;;;;;5002138;28;20085;-66
2022/03/18 00:52:03;;;;;;;5.88;4.38;;;22.40;42.20;;;;;;5002581;28;20149;-69
2022/03/18 00:52:39;;;;;;;6.10;4.60;;;22.30;42.10;;;;;;5003658;28;20044;-66
2022/03/18 00:55:05;;;;;;;5.35;4.05;;;22.30;42.20;;;;;;4998918;28;20379;-66
2022/03/18 00:57:31;;;;;;;5.57;3.97;;;22.30;42.20;;;;;;5017373;28;20084;-66
2022/03/18 00:59:57;;;;;;;6.25;4.30;;;22.30;42.20;;;;;;4997798;28;20045;-65
2022/03/18 01:02:22;;;;;;;6.45;4.53;;;22.30;42.20;;;;;;4996899;28;20046;-66
2022/03/18 01:04:50;;;;;;;5.95;4.57;;;22.30;42.20;;;;;;4999953;28;20025;-69
2022/03/18 01:07:16;;;;;;;5.28;3.97;;;22.20;42.20;;;;;;5001956;28;20032;-65
2022/03/18 01:09:42;;;;;;;5.70;4.20;;;22.20;42.70;;;;;;4998620;28;20034;-68
2022/03/18 01:12:08;;;;;;;5.00;4.05;;;22.20;42.20;;;;;;5001387;28;20022;-69
2022/03/18 01:14:34;;;;;;;5.75;4.15;;;22.20;42.20;;;;;;5001242;28;20080;-69
2022/03/18 01:16:59;;;;;;;5.85;4.25;;;22.20;42.20;;;;;;5003572;28;20076;-68
2022/03/18 01:19:25;;;;;;;5.53;4.50;;;22.20;42.20;;;;;;4998827;28;20022;-65
2022/03/18 01:21:51;;;;;;;5.43;4.30;;;22.20;42.30;;;;;;4994937;28;20053;-64
2022/03/18 01:24:17;;;;;;;5.10;4.00;;;22.20;42.20;;;;;;5008503;28;20025;-68
2022/03/18 01:26:43;;;;;;;5.13;4.18;;;22.10;42.20;;;;;;5004609;28;20117;-70
2022/03/18 01:29:09;;;;;;;4.90;3.67;;;22.10;42.20;;;;;;5020165;28;20117;-67
2022/03/18 01:31:35;;;;;;;5.80;4.32;;;22.10;42.20;;;;;;5005760;28;20033;-65
2022/03/18 01:34:01;;;;;;;5.60;4.38;;;22.10;42.30;;;;;;5005789;28;20033;-69
2022/03/18 01:36:26;;;;;;;5.97;4.35;;;22.10;42.20;;;;;;5005058;28;20419;-70
2022/03/18 01:38:53;;;;;;;5.32;4.10;;;22.10;42.30;;;;;;5004698;28;20037;-70
2022/03/18 01:41:18;;;;;;;4.93;4.15;;;22.10;42.30;;;;;;5020562;28;20500;-66
2022/03/18 01:43:46;;;;;;;5.45;4.25;;;22.10;42.30;;;;;;5007295;28;20072;-66
2022/03/18 01:46:14;;;;;;;4.95;3.90;;;22.10;42.30;;;;;;5004637;28;20038;-65
2022/03/18 01:48:40;;;;;;;5.65;3.95;;;22.10;42.30;;;;;;5002327;28;20465;-66
2022/03/18 01:51:07;;;;;;;5.13;3.85;;;22.10;42.30;;;;;;5004385;28;20100;-69
2022/03/18 01:53:37;;;;;;;5.53;4.22;;;22.10;42.30;;;;;;5004294;28;20254;-69
2022/03/18 01:56:05;;;;;;;5.03;4.30;;;22.00;42.20;;;;;;5003636;28;20130;-65
2022/03/18 01:58:30;;;;;;;5.43;4.00;;;22.00;42.20;;;;;;5003908;28;20076;-64
2022/03/18 02:00:57;;;;;;;4.97;3.88;;;22.00;42.30;;;;;;4999491;28;20049;-65
2022/03/18 02:03:22;;;;;;;5.18;3.90;;;22.00;42.30;;;;;;5004319;28;20028;-66
2022/03/18 02:05:48;;;;;;;5.55;4.35;;;22.00;42.30;;;;;;5011274;28;20359;-70
2022/03/18 02:08:16;;;;;;;5.68;4.30;;;22.00;42.30;;;;;;5012182;28;20407;-66
2022/03/18 02:10:43;;;;;;;5.47;4.20;;;22.00;42.30;;;;;;5002204;28;20120;-69
2022/03/18 02:13:09;;;;;;;4.90;3.80;;;22.00;42.30;;;;;;5005526;28;20021;-66
2022/03/18 02:15:34;;;;;;;5.25;4.10;;;22.00;42.30;;;;;;5003930;28;20172;-66
2022/03/18 02:18:00;;;;;;;4.97;3.92;;;22.00;42.30;;;;;;5004101;28;20044;-68
2022/03/18 02:20:26;;;;;;;4.57;3.67;;;22.00;42.30;;;;;;5006199;28;20138;-64
2022/03/18 02:22:52;;;;;;;4.72;3.75;;;22.00;42.30;;;;;;5004268;28;20041;-67
2022/03/18 02:25:18;;;;;;;5.22;3.85;;;22.00;42.40;;;;;;5003250;28;20056;-64
2022/03/18 02:27:57;;;;;;;4.65;3.80;;;22.00;42.40;;;;;;5005039;28;20018;-64
2022/03/18 02:30:24;;;;;;;4.75;3.85;;;21.90;42.30;;;;;;5003940;28;20597;-65
2022/03/18 02:32:50;;;;;;;5.40;3.75;;;21.90;42.30;;;;;;5005888;28;20192;-66
2022/03/18 02:35:15;;;;;;;4.30;3.40;;;21.90;42.40;;;;;;5002875;28;20259;-65
2022/03/18 02:37:41;;;;;;;5.20;3.83;;;21.90;42.30;;;;;;5005495;28;20030;-66
2022/03/18 02:40:09;;;;;;;5.03;3.95;;;21.90;42.30;;;;;;5003242;28;20022;-64
2022/03/18 02:42:35;;;;;;;4.28;3.63;;;21.90;42.40;;;;;;5001791;28;20033;-70
2022/03/18 02:45:01;;;;;;;5.32;3.83;;;21.90;42.40;;;;;;5004821;28;20048;-68
2022/03/18 02:47:27;;;;;;;5.60;4.10;;;21.90;42.40;;;;;;5004739;28;20038;-63
2022/03/18 02:49:53;;;;;;;4.25;3.20;;;21.90;42.40;;;;;;5004553;28;20232;-70
2022/03/18 02:52:19;;;;;;;4.80;3.88;;;21.90;42.40;;;;;;5004208;28;20049;-66
2022/03/18 02:54:45;;;;;;;4.97;3.80;;;21.90;42.50;;;;;;5004622;28;20024;-66
2022/03/18 02:57:11;;;;;;;4.50;3.50;;;21.90;42.50;;;;;;5002928;28;20026;-65
2022/03/18 02:59:37;;;;;;;4.80;3.60;;;21.80;42.40;;;;;;5004533;28;20107;-65
2022/03/18 03:02:03;;;;;;;4.57;3.67;;;21.80;42.40;;;;;;5003737;28;20042;-69
2022/03/18 03:04:29;;;;;;;4.43;3.40;;;21.80;42.50;;;;;;5009098;28;20029;-66
2022/03/18 03:09:38;;;;;;;5.15;3.70;;;21.80;42.50;;;;;;5001164;28;20049;-69
2022/03/18 03:12:04;;;;;;;3.67;3.20;;;21.80;42.50;;;;;;5002122;28;20030;-66
2022/03/18 03:14:30;;;;;;;4.00;3.50;;;21.80;42.50;;;;;;5005534;28;20183;-69
2022/03/18 03:16:55;;;;;;;4.18;3.47;;;21.80;42.50;;;;;;5004725;28;20553;-66
2022/03/18 03:19:21;;;;;;;4.28;3.45;;;21.80;42.50;;;;;;5006009;28;20615;-65
2022/03/18 03:21:47;;;;;;;4.60;3.38;;;21.80;42.50;;;;;;5003416;28;20127;-69
2022/03/18 03:24:13;;;;;;;3.80;2.95;;;21.80;42.50;;;;;;5004973;28;20415;-64
2022/03/18 03:26:39;;;;;;;4.35;3.33;;;21.80;42.50;;;;;;5000014;28;21251;-68
2022/03/18 03:29:04;;;;;;;3.85;3.28;;;21.80;42.60;;;;;;5003259;28;20044;-68
2022/03/18 03:31:30;;;;;;;4.10;2.95;;;21.70;42.50;;;;;;5002433;28;20048;-69
2022/03/18 03:33:56;;;;;;;4.43;3.38;;;21.70;42.50;;;;;;5006353;28;20121;-65
2022/03/18 03:36:23;;;;;;;4.32;3.30;;;21.80;42.60;;;;;;5004727;28;20117;-67
2022/03/18 03:38:49;;;;;;;4.25;3.20;;;21.70;42.50;;;;;;5001604;28;20022;-66
2022/03/18 03:41:14;;;;;;;4.55;3.28;;;21.70;42.50;;;;;;5001569;28;20048;-66
2022/03/18 03:43:41;;;;;;;3.70;3.08;;;21.70;42.60;;;;;;5001708;28;20070;-66
2022/03/18 03:46:07;;;;;;;4.18;3.28;;;21.70;42.60;;;;;;5004742;28;20059;-65
2022/03/18 03:48:32;;;;;;;4.65;3.00;;;21.70;42.60;;;;;;5002147;28;20026;-68
2022/03/18 03:50:58;;;;;;;4.50;2.90;;;21.70;42.60;;;;;;5004874;28;20125;-65
2022/03/18 03:53:24;;;;;;;4.60;3.20;;;21.70;42.60;;;;;;5002807;28;20111;-69
2022/03/18 03:55:49;;;;;;;3.92;3.35;;;21.70;42.70;;;;;;5002215;28;20384;-65
2022/03/18 03:58:15;;;;;;;3.97;3.10;;;21.70;42.70;;;;;;5002668;28;20034;-66
2022/03/18 04:00:40;;;;;;;4.38;3.22;;;21.70;42.70;;;;;;5003041;28;20426;-63
2022/03/18 04:03:06;;;;;;;4.13;3.20;;;21.70;42.70;;;;;;5005752;28;20565;-64
2022/03/18 04:05:33;;;;;;;4.10;2.92;;;21.60;42.70;;;;;;5001093;28;20430;-68
2022/03/18 04:08:00;;;;;;;3.63;2.97;;;21.60;42.70;;;;;;4993712;28;20077;-67
2022/03/18 04:10:27;;;;;;;4.20;3.50;;;21.60;42.70;;;;;;4996881;28;20032;-68
2022/03/18 04:12:54;;;;;;;3.97;3.10;;;21.60;42.70;;;;;;5000009;28;20434;-65
2022/03/18 04:15:20;;;;;;;3.63;2.80;;;21.60;42.70;;;;;;5004347;28;20032;-65
2022/03/18 04:17:47;;;;;;;3.90;3.20;;;21.60;42.70;;;;;;4997701;28;20030;-69
2022/03/18 04:20:21;;;;;;;3.70;2.90;;;21.60;42.70;;;;;;5002846;28;20018;-65
2022/03/18 04:22:48;;;;;;;3.63;2.97;;;21.60;42.80;;;;;;5003385;28;20041;-69
2022/03/18 04:25:14;;;;;;;4.25;2.90;;;21.60;42.80;;;;;;5002702;28;20132;-63
2022/03/18 04:27:40;;;;;;;3.70;2.90;;;21.60;42.70;;;;;;4999413;28;20121;-65
2022/03/18 04:30:09;;;;;;;4.03;2.92;;;21.60;42.80;;;;;;5002086;28;20386;-65
2022/03/18 04:32:35;;;;;;;3.53;3.05;;;21.60;42.80;;;;;;4998745;28;20054;-64
2022/03/18 04:35:00;;;;;;;3.97;2.90;;;21.60;42.80;;;;;;5000320;28;20088;-66
2022/03/18 04:37:26;;;;;;;3.65;3.13;;;21.60;42.80;;;;;;4996634;28;20034;-65
2022/03/18 04:39:52;;;;;;;4.15;3.28;;;21.50;42.80;;;;;;5003652;28;20147;-68
2022/03/18 04:42:18;;;;;;;4.13;3.20;;;21.50;42.80;;;;;;4993526;28;20033;-68
2022/03/18 04:44:44;;;;;;;3.67;2.80;;;21.50;42.80;;;;;;5000288;28;20366;-66
2022/03/18 04:47:10;;;;;;;3.78;3.00;;;21.50;42.80;;;;;;5002990;28;20045;-68
2022/03/18 04:49:36;;;;;;;3.30;2.55;;;21.50;42.80;;;;;;5001594;28;20033;-64
2022/03/18 04:52:02;;;;;;;3.53;2.70;;;21.50;42.80;;;;;;5004005;28;20482;-64
2022/03/18 04:54:28;;;;;;;3.90;2.88;;;21.50;42.90;;;;;;5003495;28;20045;-68
2022/03/18 04:59:40;;;;;;;4.00;3.00;;;21.50;42.90;;;;;;5002437;28;20091;-68
2022/03/18 05:02:06;;;;;;;3.88;2.90;;;21.50;42.90;;;;;;5000961;28;20030;-64
2022/03/18 05:04:31;;;;;;;3.90;2.88;;;21.50;42.90;;;;;;5001282;28;20417;-64
2022/03/18 05:06:57;;;;;;;3.75;2.80;;;21.50;42.90;;;;;;5001430;28;20034;-65
2022/03/18 05:09:23;;;;;;;3.45;2.90;;;21.50;43.00;;;;;;5001521;28;20045;-66
2022/03/18 05:11:49;;;;;;;3.70;2.70;;;21.50;43.00;;;;;;5000434;28;20057;-65
2022/03/18 05:14:16;;;;;;;4.13;2.90;;;21.50;43.00;;;;;;5001008;28;20064;-66
2022/03/18 05:16:42;;;;;;;4.18;2.97;;;21.50;43.00;;;;;;5004418;28;20117;-61
2022/03/18 05:19:09;;;;;;;3.50;2.63;;;21.50;43.50;;;;;;5004496;28;20026;-62
2022/03/18 05:21:35;;;;;;;3.78;3.00;;;21.50;43.00;;;;;;5002544;28;20040;-64
2022/03/18 05:24:01;;;;;;;3.72;2.63;;;21.50;43.00;;;;;;4999233;28;20041;-66
2022/03/18 05:26:27;;;;;;;3.50;2.58;;;21.50;43.00;;;;;;5002556;28;20446;-63
2022/03/18 05:28:52;;;;;;;3.90;2.90;;;21.50;43.00;;;;;;5003243;28;20383;-65
2022/03/18 05:31:18;;;;;;;3.55;2.85;;;21.50;43.00;;;;;;5001762;28;20046;-66
2022/03/18 05:33:43;;;;;;;3.35;2.83;;;21.50;43.10;;;;;;4999490;28;20488;-62
2022/03/18 05:36:09;;;;;;;4.32;3.05;;;21.50;43.10;;;;;;5001321;28;20037;-68
2022/03/18 05:38:35;;;;;;;3.97;3.00;;;21.40;43.00;;;;;;4998852;28;20060;-62
2022/03/18 05:41:00;;;;;;;4.32;2.90;;;21.50;43.10;;;;;;4998695;28;20029;-65
2022/03/18 05:43:26;;;;;;;3.60;2.80;;;21.40;43.10;;;;;;4990919;28;20157;-68
2022/03/18 05:45:52;;;;;;;4.03;3.00;;;21.40;43.10;;;;;;5002775;28;20548;-62
2022/03/18 05:48:20;;;;;;;5.10;3.28;;;21.50;43.10;;;;;;5005406;28;20881;-63
2022/03/18 05:50:45;;;;;;;3.70;3.00;;;21.40;43.00;;;;;;4995165;28;20030;-67
2022/03/18 05:53:12;;;;;;;4.10;2.83;;;21.40;43.10;;;;;;5000332;28;20475;-64
2022/03/18 05:58:22;;;;;;;4.30;3.20;;;21.40;43.00;;;;;;4998052;28;20064;-62
2022/03/18 06:00:48;;;;;;;4.60;3.00;;;21.40;43.00;;;;;;5000930;28;20077;-62
2022/03/18 06:03:14;;;;;;;3.88;2.75;;;21.40;43.00;;;;;;5002855;28;20104;-64
2022/03/18 06:05:40;;;;;;;3.85;2.83;;;21.50;43.00;;;;;;4998197;28;20049;-64
2022/03/18 06:13:34;;;;;;;4.22;3.05;;;21.50;43.80;;;;;;5003398;28;20175;-61
2022/03/18 06:16:00;;;;;;;5.45;3.53;;;21.60;44.00;;;;;;4997676;28;20105;-65
2022/03/18 06:18:26;;;;;;;4.80;3.90;;;21.80;43.80;;;;;;5004462;28;20037;-66
2022/03/18 06:20:52;;;;;;;4.25;3.45;;;22.00;43.70;;;;;;5006087;28;20088;-66
2022/03/18 06:23:18;;;;;;;4.53;3.50;;;22.10;43.50;;;;;;5003106;28;20034;-64
2022/03/18 06:25:43;;;;;;;4.78;3.55;;;22.20;43.30;;;;;;5004578;28;20037;-65
2022/03/18 06:28:09;;;;;;;4.70;3.53;;;22.30;43.20;;;;;;5004861;28;20375;-62
2022/03/18 06:30:35;;;;;;;4.78;3.70;;;22.40;42.90;;;;;;5004050;28;20435;-65
2022/03/18 06:33:01;;;;;;;5.15;2.70;;;22.50;42.80;;;;;;5002097;28;20056;-66
2022/03/18 06:35:27;;;;;;;2.80;2.35;;;22.60;42.50;;;;;;5003132;28;20462;-66
2022/03/18 06:37:52;;;;;;;3.28;2.47;;;22.60;42.40;;;;;;5007196;28;20080;-65
2022/03/18 06:40:18;;;;;;;3.58;2.67;;;22.60;42.40;;;;;;5004505;28;20423;-63
2022/03/18 06:42:44;;;;;;;4.78;2.92;;;22.60;42.30;;;;;;5003519;28;20029;-62
2022/03/18 06:45:10;;;;;;;3.72;2.70;;;22.60;42.30;;;;;;5002021;28;20511;-67
2022/03/18 06:47:35;;;;;;;3.05;2.35;;;22.60;42.20;;;;;;5004105;28;20387;-66
2022/03/18 06:50:01;;;;;;;3.63;2.67;;;22.60;42.20;;;;;;5004854;28;20037;-63
2022/03/18 06:52:27;;;;;;;3.42;2.60;;;22.60;42.10;;;;;;5004206;28;20474;-67
2022/03/18 06:54:52;;;;;;;4.30;3.00;;;22.60;42.10;;;;;;5003836;28;20026;-64
2022/03/18 06:57:18;;;;;;;3.28;2.72;;;22.60;42.10;;;;;;5000101;28;20022;-63
2022/03/18 06:59:43;;;;;;;4.45;3.40;;;22.60;42.00;;;;;;5001729;28;20103;-63
2022/03/18 07:02:10;;;;;;;3.65;2.95;;;22.70;42.10;;;;;;5005547;28;20046;-62
2022/03/18 07:04:36;;;;;;;4.38;3.08;;;22.70;42.20;;;;;;5004634;28;20029;-61
2022/03/18 07:07:02;;;;;;;4.35;3.38;;;22.70;41.90;;;;;;5005178;28;20442;-65
2022/03/18 07:09:27;;;;;;;4.07;3.13;;;22.70;41.80;;;;;;5018523;28;20087;-66
2022/03/18 07:11:53;;;;;;;4.13;2.90;;;22.80;41.80;;;;;;5018103;28;20026;-63
2022/03/18 07:14:18;;;;;;;3.28;2.70;;;22.80;41.70;;;;;;5007208;28;20022;-61
2022/03/18 07:19:28;;;;;;;4.28;2.42;;;22.80;41.80;;;;;;5020283;28;20062;-61
2022/03/18 07:21:54;;;;;;;4.15;3.15;;;22.80;41.80;;;;;;5019740;28;20030;-62
2022/03/18 07:24:20;;;;;;;3.67;2.70;;;22.80;41.80;;;;;;5016429;28;20418;-62
2022/03/18 07:26:45;;;;;;;3.65;2.92;;;22.90;41.80;;;;;;5016919;28;20030;-66
2022/03/18 07:29:11;;;;;;;3.70;2.50;;;22.90;41.80;;;;;;5015598;28;20092;-66
2022/03/18 07:31:36;;;;;;;3.28;2.60;;;22.90;41.80;;;;;;5010544;28;20390;-64
2022/03/18 07:34:02;;;;;;;3.70;2.92;;;22.90;41.70;;;;;;5008593;28;20490;-62
2022/03/18 07:36:28;;;;;;;3.35;2.65;;;22.90;41.70;;;;;;5009807;28;20036;-64
2022/03/18 07:38:53;;;;;;;3.83;2.90;;;22.90;41.60;;;;;;5006097;28;20079;-68
2022/03/18 07:41:20;;;;;;;3.67;2.78;;;22.90;41.60;;;;;;5004513;28;20036;-66
2022/03/18 07:43:46;;;;;;;3.70;2.78;;;22.90;41.60;;;;;;5004767;28;20034;-66
2022/03/18 07:46:11;;;;;;;3.33;2.70;;;23.00;41.60;;;;;;5005717;28;20193;-62
2022/03/18 07:48:40;;;;;;;3.30;2.60;;;23.00;41.60;;;;;;5002988;28;20068;-67
2022/03/18 07:51:06;;;;;;;3.35;2.55;;;23.00;41.70;;;;;;5006578;28;20041;-64
2022/03/18 07:53:31;;;;;;;3.42;2.45;;;23.00;41.60;;;;;;5003321;28;20026;-63
2022/03/18 07:55:57;;;;;;;3.00;2.25;;;23.10;41.60;;;;;;5005620;28;20053;-63
2022/03/18 07:58:22;;;;;;;3.35;2.60;;;23.10;41.60;;;;;;5002908;28;20475;-62
2022/03/18 08:00:48;;;;;;;3.15;2.33;;;23.10;41.60;;;;;;5003015;28;20145;-63
2022/03/18 08:03:14;;;;;;;3.40;2.40;;;23.10;41.80;;;;;;4999403;28;20040;-63
2022/03/18 08:05:40;;;;;;;3.20;2.30;;;23.10;41.70;;;;;;5001994;28;20036;-66
2022/03/18 08:08:06;;;;;;;3.47;2.53;;;23.20;42.00;;;;;;5002004;28;20045;-64
2022/03/18 08:10:32;;;;;;;3.22;2.42;;;23.20;41.90;;;;;;4997758;28;20079;-63
2022/03/18 08:12:58;;;;;;;3.20;2.28;;;23.20;41.80;;;;;;4999780;28;20113;-65
2022/03/18 08:15:24;;;;;;;3.55;2.42;;;23.20;41.70;;;;;;4999222;28;20025;-66
2022/03/18 08:17:52;;;;;;;4.20;2.53;;;23.20;41.60;;;;;;5003070;28;20525;-66
2022/03/18 08:20:19;;;;;;;3.10;2.20;;;23.30;41.60;;;;;;5004231;28;20073;-62
2022/03/18 08:22:45;;;;;;;2.72;2.30;;;23.30;41.60;;;;;;5000789;28;20025;-65
2022/03/18 08:25:11;;;;;;;3.22;2.50;;;23.30;41.60;;;;;;5001499;28;20056;-64
2022/03/18 08:27:37;;;;;;;3.72;2.60;;;23.30;41.60;;;;;;5002012;28;20030;-65
2022/03/18 08:30:06;;;;;;;3.15;2.50;;;23.30;41.70;;;;;;5004913;28;20044;-63
2022/03/18 08:32:32;;;;;;;2.95;2.38;;;23.30;41.60;;;;;;4998556;28;20033;-63
2022/03/18 08:34:58;;;;;;;2.90;2.28;;;23.30;41.50;;;;;;5000779;28;20056;-63
2022/03/18 08:40:10;;;;;;;3.30;2.50;;;23.40;41.50;;;;;;5004437;28;20049;-67
2022/03/18 08:42:35;;;;;;;3.10;2.25;;;23.40;41.30;;;;;;5001085;28;20091;-66
2022/03/18 08:45:02;;;;;;;3.55;2.35;;;23.40;41.30;;;;;;4999771;28;20048;-65
2022/03/18 08:47:28;;;;;;;4.45;2.38;;;23.50;41.30;;;;;;5001631;28;20033;-63
2022/03/18 08:49:54;;;;;;;4.07;2.50;;;23.50;41.20;;;;;;5004567;28;20454;-65
2022/03/18 08:52:19;;;;;;;3.17;2.30;;;23.50;41.30;;;;;;5002116;28;20561;-63
2022/03/18 08:54:45;;;;;;;3.05;2.20;;;23.50;41.20;;;;;;5003124;28;20658;-66
2022/03/18 08:57:11;;;;;;;3.40;2.50;;;23.50;41.30;;;;;;5006965;28;20371;-62
2022/03/18 08:59:36;;;;;;;3.25;2.60;;;23.50;41.20;;;;;;5000788;28;20030;-66
2022/03/18 09:02:02;;;;;;;2.95;2.15;;;23.60;41.20;;;;;;5001469;28;20515;-62
2022/03/18 09:04:28;;;;;;;3.10;2.33;;;23.60;41.20;;;;;;5002003;28;20343;-65
2022/03/18 09:06:54;;;;;;;3.20;2.50;;;23.60;41.10;;;;;;4999145;28;20034;-62
2022/03/18 09:09:19;;;;;;;3.90;3.22;;;23.60;41.70;;;;;;4996757;28;20034;-63
2022/03/18 09:11:45;;;;;;;4.50;3.63;;;23.60;40.90;;;;;;5000909;28;20034;-64
2022/03/18 09:14:12;;;;;;;4.53;3.65;;;23.70;40.70;;;;;;5001408;28;20038;-62
2022/03/18 09:16:38;;;;;;;5.10;3.97;;;23.70;40.40;;;;;;5018621;28;20034;-62
2022/03/18 09:19:07;;;;;;;5.68;4.35;;;23.70;40.20;;;;;;5000805;28;20033;-64
2022/03/18 09:21:34;;;;;;;5.43;3.75;;;23.70;40.10;;;;;;5009722;28;20057;-62
2022/03/18 09:24:00;;;;;;;6.30;3.55;;;23.70;40.10;;;;;;4999510;28;20048;-61
2022/03/18 09:26:26;;;;;;;4.03;3.42;;;23.70;40.00;;;;;;5001350;28;20135;-64
2022/03/18 09:28:52;;;;;;;4.40;3.78;;;23.80;40.20;;;;;;5001582;28;20483;-62
2022/03/18 09:31:18;;;;;;;3.92;3.30;;;23.70;40.00;;;;;;5002990;28;20038;-62
2022/03/18 09:33:46;;;;;;;4.13;3.33;;;23.70;40.00;;;;;;4998577;28;20065;-63
2022/03/18 09:36:14;;;;;;;4.05;3.38;;;23.70;40.10;;;;;;5001983;28;20022;-61
2022/03/18 09:38:41;;;;;;;4.65;3.50;;;23.70;40.00;;;;;;5001192;28;20032;-65
2022/03/18 09:41:07;;;;;;;4.57;3.90;;;23.70;40.00;;;;;;5004021;28;20045;-63
2022/03/18 09:43:35;;;;;;;4.78;3.72;;;23.70;40.00;;;;;;4998753;28;20044;-64
2022/03/18 09:46:03;;;;;;;5.38;4.00;;;23.80;40.10;;;;;;4999898;28;20033;-64
2022/03/18 09:48:30;;;;;;;4.07;3.30;;;23.70;40.00;;;;;;5002244;28;20493;-62
2022/03/18 09:50:56;;;;;;;4.32;3.65;;;23.70;40.00;;;;;;5002320;28;20026;-66
2022/03/18 09:53:22;;;;;;;4.70;3.65;;;23.80;40.10;;;;;;5003530;28;20141;-65
2022/03/18 09:55:51;;;;;;;4.50;3.78;;;23.80;40.00;;;;;;5000683;28;20109;-66
2022/03/18 09:58:17;;;;;;;4.78;3.80;;;23.80;40.00;;;;;;5005477;28;20468;-64
2022/03/18 10:00:43;;;;;;;4.13;3.50;;;23.80;40.00;;;;;;4998735;28;20059;-66
2022/03/18 10:03:16;;;;;;;4.40;3.60;;;23.80;40.00;;;;;;5005749;28;20371;-63
2022/03/18 10:05:59;;;;;;;4.32;3.78;;;23.80;39.90;;;;;;5005075;28;20022;-65
2022/03/18 10:08:45;;;;;;;3.95;3.35;;;23.80;39.90;;;;;;5002492;28;20029;-66
2022/03/18 10:11:14;;;;;;;4.55;3.80;;;23.80;40.00;;;;;;5002701;28;20030;-62
2022/03/18 10:13:57;;;;;;;3.97;3.33;;;23.80;39.90;;;;;;5018850;28;20029;-65
2022/03/18 10:16:44;;;;;;;4.43;3.60;;;23.80;39.90;;;;;;5002929;28;20053;-62
2022/03/18 10:19:16;;;;;;;4.13;3.47;;;23.80;39.90;;;;;;5000305;28;20053;-66
2022/03/18 10:21:59;;;;;;;4.60;3.70;;;23.80;39.90;;;;;;5002377;28;20084;-65
2022/03/18 10:24:30;;;;;;;4.35;3.63;;;23.90;39.90;;;;;;5001619;28;20034;-63
2022/03/18 10:27:19;;;;;;;4.68;3.63;;;23.80;39.90;;;;;;5002869;28;20489;-64
2022/03/18 10:29:52;;;;;;;4.53;3.47;;;23.90;39.90;;;;;;5003325;28;20169;-62
2022/03/18 10:32:19;;;;;;;4.03;3.50;;;23.90;39.90;;;;;;5003830;28;20065;-62
2022/03/18 10:37:47;;;;;;;3.70;3.28;;;23.90;39.90;;;;;;5001397;28;20100;-61
2022/03/18 10:40:14;;;;;;;4.18;3.38;;;23.90;40.00;;;;;;4993825;28;20092;-64
2022/03/18 10:42:40;;;;;;;4.60;3.60;;;23.90;40.00;;;;;;5001094;28;20120;-62
2022/03/18 10:45:09;;;;;;;3.85;3.08;;;23.90;40.10;;;;;;4994533;28;20868;-64
2022/03/18 10:47:36;;;;;;;4.13;3.20;;;23.90;40.00;;;;;;5005347;28;20119;-61
2022/03/18 10:50:11;;;;;;;4.65;3.20;;;23.90;40.00;;;;;;4990136;28;20018;-64
2022/03/18 10:52:46;;;;;;;3.85;3.30;;;24.00;40.00;;;;;;4992247;28;20038;-64
2022/03/18 10:55:36;;;;;;;4.10;3.20;;;24.00;40.00;;;;;;4999188;28;20092;-65
2022/03/18 10:58:10;;;;;;;4.10;3.28;;;24.00;40.00;;;;;;4993348;28;20209;-64
2022/03/18 11:00:43;;;;;;;3.60;3.13;;;24.00;40.10;;;;;;5005439;28;20057;-65
2022/03/18 11:03:11;;;;;;;3.78;2.95;;;24.00;40.10;;;;;;4995654;28;20084;-65
2022/03/18 11:05:50;;;;;;;3.60;3.17;;;24.00;40.10;;;;;;4996245;28;20061;-65
2022/03/18 11:08:21;;;;;;;3.90;3.38;;;24.00;40.10;;;;;;4999965;28;20959;-65
2022/03/18 11:11:14;;;;;;;4.30;3.25;;;24.10;40.10;;;;;;5000145;28;20030;-62
2022/03/18 11:13:47;;;;;;;3.53;2.88;;;24.10;40.10;;;;;;5000745;28;20052;-66
2022/03/18 11:16:15;;;;;;;3.08;2.50;;;24.10;40.40;;;;;;5003708;28;20030;-65
2022/03/18 11:18:41;;;;;;;5.18;3.10;;;24.10;40.30;;;;;;4996157;28;20022;-61
2022/03/18 11:21:09;;;;;;;3.92;3.10;;;24.10;40.40;;;;;;5000925;28;20022;-65
2022/03/18 11:23:37;;;;;;;3.70;3.22;;;24.10;40.30;;;;;;5014984;28;20030;-63
2022/03/18 11:26:03;;;;;;;3.65;3.13;;;24.10;40.30;;;;;;5001930;28;20500;-65
2022/03/18 11:28:30;;;;;;;3.75;2.97;;;24.10;40.20;;;;;;5002781;28;20052;-63
2022/03/18 11:31:03;;;;;;;3.55;2.60;;;24.10;40.20;;;;;;5001688;28;20041;-62
2022/03/18 11:33:29;;;;;;;3.35;2.40;;;24.10;40.30;;;;;;5004893;28;20406;-65
2022/03/18 11:35:54;;;;;;;3.90;3.25;;;24.10;40.40;;;;;;4998564;28;20032;-62
2022/03/18 11:38:46;;;;;;;3.67;2.63;;;24.20;40.30;;;;;;4995665;28;20061;-63
2022/03/18 11:41:12;;;;;;;3.88;3.20;;;24.20;40.30;;;;;;5003302;28;20445;-64
2022/03/18 11:43:50;;;;;;;3.97;2.92;;;24.20;40.40;;;;;;5012756;28;20026;-66
2022/03/18 11:46:16;;;;;;;3.75;3.35;;;24.20;40.20;;;;;;4999160;28;20084;-66
2022/03/18 11:48:49;;;;;;;4.38;3.20;;;24.20;40.10;;;;;;5000019;28;20084;-64
2022/03/18 11:51:31;;;;;;;4.18;3.47;;;24.20;40.10;;;;;;5003862;28;20041;-64
2022/03/18 11:54:12;;;;;;;4.07;3.35;;;24.20;40.00;;;;;;5001665;28;20352;-67
2022/03/18 11:56:50;;;;;;;4.50;3.40;;;24.20;40.00;;;;;;5002168;28;20450;-62
2022/03/18 11:59:25;;;;;;;4.25;3.70;;;24.20;39.90;;;;;;5001779;28;20026;-65
2022/03/18 12:01:52;;;;;;;4.32;3.55;;;24.20;40.10;;;;;;5006173;28;20460;-67
2022/03/18 12:04:46;;;;;;;3.72;3.22;;;24.30;40.00;;;;;;4999004;28;20040;-63
2022/03/18 12:07:20;;;;;;;4.50;3.30;;;24.30;40.60;;;;;;5002753;28;20038;-63
2022/03/18 12:10:08;;;;;;;3.72;3.05;;;24.30;40.10;;;;;;5004165;28;20461;-63
2022/03/18 12:12:40;;;;;;;4.07;3.40;;;24.30;40.00;;;;;;5000939;28;20183;-66
2022/03/18 12:15:22;;;;;;;3.47;3.00;;;24.30;40.00;;;;;;4999828;28;20037;-66
2022/03/18 12:17:52;;;;;;;4.25;3.45;;;24.30;40.20;;;;;;4996372;28;20036;-63
2022/03/18 12:20:28;;;;;;;4.22;3.45;;;24.30;40.60;;;;;;4997660;28;20061;-65
2022/03/18 12:22:54;;;;;;;4.20;3.30;;;24.30;40.20;;;;;;4998002;28;20708;-65
2022/03/18 12:25:22;;;;;;;3.80;3.30;;;24.30;40.20;;;;;;4985640;28;20041;-66
2022/03/18 12:27:50;;;;;;;4.55;3.35;;;24.30;40.50;;;;;;4990429;28;20530;-63
2022/03/18 12:30:18;;;;;;;4.50;3.25;;;24.40;40.30;;;;;;4991607;28;20112;-65
2022/03/18 12:32:57;;;;;;;4.15;3.30;;;24.40;40.20;;;;;;4995804;28;20029;-65
2022/03/18 12:35:30;;;;;;;4.78;3.33;;;24.40;40.30;;;;;;4994915;28;20030;-64
2022/03/18 12:38:05;;;;;;;4.68;3.38;;;24.40;40.30;;;;;;5008251;28;20129;-65
2022/03/18 12:40:31;;;;;;;4.25;3.28;;;24.40;40.30;;;;;;4997733;28;20044;-65
2022/03/18 12:42:59;;;;;;;4.80;3.25;;;24.40;40.20;;;;;;4999441;28;20045;-66
2022/03/18 12:45:50;;;;;;;4.05;3.40;;;24.40;40.30;;;;;;4992683;28;20109;-66
2022/03/18 12:48:20;;;;;;;5.03;3.30;;;24.40;40.30;;;;;;5000071;28;20108;-66
2022/03/18 12:50:47;;;;;;;4.25;3.30;;;24.40;40.30;;;;;;4997495;28;20576;-64
2022/03/18 12:53:18;;;;;;;3.90;2.92;;;24.40;40.30;;;;;;4998586;28;20038;-68
2022/03/18 12:55:46;;;;;;;5.28;3.45;;;24.40;40.30;;;;;;4987098;28;20463;-68
2022/03/18 12:58:13;;;;;;;5.38;3.75;;;24.40;40.30;;;;;;4995387;28;20109;-64
2022/03/18 13:00:44;;;;;;;4.32;3.38;;;24.40;40.30;;;;;;4994639;28;20038;-67
2022/03/18 13:03:30;;;;;;;4.25;3.25;;;24.40;40.30;;;;;;4994038;28;20461;-66
2022/03/18 13:06:07;;;;;;;5.00;3.47;;;24.40;40.30;;;;;;4988201;28;20030;-66
2022/03/18 13:08:34;;;;;;;5.82;3.35;;;24.40;40.30;;;;;;4994463;28;20041;-66
2022/03/18 13:11:02;;;;;;;5.82;3.35;;;24.40;40.40;;;;;;4997006;28;20947;-66
2022/03/18 13:13:28;;;;;;;4.22;3.15;;;24.40;40.40;;;;;;4996198;28;20022;-66
2022/03/18 13:16:02;;;;;;;5.32;3.22;;;24.40;40.40;;;;;;4989400;28;20033;-66